createdAt,value
2018-09-05T00:01:57.493Z,16.06
2018-09-05T00:06:52.424Z,16.16
2018-09-05T00:11:47.317Z,16.11
2018-09-05T00:16:45.015Z,16.01
2018-09-05T00:21:39.801Z,16.07
2018-09-05T00:26:34.633Z,15.95
2018-09-05T00:31:29.466Z,15.94
2018-09-05T00:36:24.324Z,15.87
2018-09-05T00:41:19.110Z,15.87
2018-09-05T00:46:13.951Z,15.92
2018-09-05T00:51:08.737Z,15.87
2018-09-05T00:56:03.532Z,15.74
2018-09-05T01:00:58.341Z,15.73
2018-09-05T01:05:53.152Z,15.72
2018-09-05T01:10:47.986Z,15.58
2018-09-05T01:15:42.860Z,15.59
2018-09-05T01:20:37.762Z,15.44
2018-09-05T01:25:32.521Z,15.50
2018-09-05T01:30:28.638Z,15.39
2018-09-05T01:35:23.437Z,15.25
2018-09-05T01:40:18.257Z,15.34
2018-09-05T01:45:13.081Z,15.26
2018-09-05T01:50:07.913Z,15.32
2018-09-05T01:55:02.701Z,15.35
2018-09-05T01:59:57.477Z,15.29
2018-09-05T02:04:52.289Z,15.29
2018-09-05T02:09:47.078Z,15.35
2018-09-05T02:14:41.919Z,15.31
2018-09-05T02:19:36.693Z,15.02
2018-09-05T02:24:31.522Z,15.14
2018-09-05T02:29:26.292Z,14.83
2018-09-05T02:34:21.053Z,15.01
2018-09-05T02:39:15.850Z,15.04
2018-09-05T02:44:15.785Z,15.00
2018-09-05T02:49:10.853Z,14.93
2018-09-05T02:54:05.707Z,14.84
2018-09-05T02:59:00.446Z,14.64
2018-09-05T03:03:55.297Z,14.78
2018-09-05T03:08:56.754Z,14.78
2018-09-05T03:13:51.594Z,14.77
2018-09-05T03:18:46.371Z,14.58
2018-09-05T03:23:41.149Z,14.67
2018-09-05T03:28:35.926Z,14.74
2018-09-05T03:33:30.751Z,14.53
2018-09-05T03:38:25.520Z,14.51
2018-09-05T03:43:20.309Z,14.24
2018-09-05T03:48:15.092Z,14.36
2018-09-05T03:53:09.849Z,14.47
2018-09-05T03:58:04.709Z,14.27
2018-09-05T04:02:59.574Z,14.45
2018-09-05T04:07:54.380Z,14.43
2018-09-05T04:12:49.165Z,14.48
2018-09-05T04:17:43.940Z,14.31
2018-09-05T04:22:38.725Z,14.41
2018-09-05T04:27:33.542Z,14.44
2018-09-05T04:32:28.363Z,14.41
2018-09-05T04:37:23.182Z,14.34
2018-09-05T04:42:18.056Z,14.50
2018-09-05T04:47:12.816Z,14.45
2018-09-05T04:52:07.640Z,14.41
2018-09-05T04:57:02.405Z,14.41
2018-09-05T05:01:57.229Z,14.42
2018-09-05T05:06:52.041Z,14.42
2018-09-05T05:11:46.845Z,14.26
2018-09-05T05:16:41.634Z,14.28
2018-09-05T05:21:36.437Z,14.30
2018-09-05T05:26:31.260Z,14.32
2018-09-05T05:31:26.031Z,14.48
2018-09-05T05:36:20.828Z,14.61
2018-09-05T05:41:15.745Z,14.69
2018-09-05T05:46:10.850Z,14.81
2018-09-05T05:51:06.044Z,14.99
2018-09-05T05:56:00.841Z,15.16
2018-09-05T06:00:55.674Z,15.28
2018-09-05T06:05:50.491Z,15.42
2018-09-05T06:10:45.301Z,15.56
2018-09-05T06:15:40.133Z,15.65
2018-09-05T06:20:34.882Z,15.78
2018-09-05T06:25:29.653Z,15.88
2018-09-05T06:30:24.528Z,16.03
2018-09-05T06:35:19.264Z,16.15
2018-09-05T06:40:14.009Z,16.31
2018-09-05T06:45:08.989Z,16.41
2018-09-05T06:50:03.657Z,16.54
2018-09-05T06:55:01.313Z,16.70
2018-09-05T06:59:56.173Z,16.74
2018-09-05T07:04:51.237Z,16.76
2018-09-05T07:09:46.072Z,16.83
2018-09-05T07:14:40.960Z,17.08
2018-09-05T07:19:35.774Z,17.26
2018-09-05T07:24:30.598Z,17.37
2018-09-05T07:29:25.365Z,17.46
2018-09-05T07:34:20.153Z,17.54
2018-09-05T07:39:14.916Z,17.60
2018-09-05T07:44:09.724Z,17.64
2018-09-05T07:49:04.542Z,17.78
2018-09-05T07:53:59.351Z,17.95
2018-09-05T07:58:54.213Z,18.21
2018-09-05T08:03:49.025Z,18.35
2018-09-05T08:08:43.843Z,18.47
2018-09-05T08:13:38.632Z,18.61
2018-09-05T08:18:34.082Z,18.67
2018-09-05T08:23:28.903Z,19.03
2018-09-05T08:28:23.693Z,19.59
2018-09-05T08:33:18.732Z,20.11
2018-09-05T08:38:13.504Z,20.40
2018-09-05T08:43:08.407Z,20.42
2018-09-05T08:48:05.143Z,21.03
2018-09-05T08:53:00.051Z,21.19
2018-09-05T08:57:54.923Z,21.62
2018-09-05T09:02:49.898Z,21.66
2018-09-05T09:07:44.845Z,22.03
2018-09-05T09:12:39.705Z,22.20
2018-09-05T09:17:34.577Z,22.14
2018-09-05T09:22:29.497Z,22.19
2018-09-05T09:27:24.413Z,22.26
2018-09-05T09:32:19.274Z,22.36
2018-09-05T09:37:14.082Z,22.53
2018-09-05T09:42:09.049Z,22.71
2018-09-05T09:47:03.948Z,23.05
2018-09-05T09:52:03.970Z,22.93
2018-09-05T09:56:59.741Z,23.05
2018-09-05T10:01:59.722Z,23.08
2018-09-05T10:06:59.612Z,23.20
2018-09-05T10:11:59.407Z,23.47
2018-09-05T10:16:59.225Z,23.60
2018-09-05T10:21:55.304Z,23.14
2018-09-05T10:26:50.109Z,23.21
2018-09-05T10:31:45.009Z,23.41
2018-09-05T10:36:40.737Z,23.58
2018-09-05T10:41:35.600Z,23.41
2018-09-05T10:46:30.449Z,23.59
2018-09-05T10:51:30.343Z,23.33
2018-09-05T10:56:25.161Z,23.10
2018-09-05T11:01:20.027Z,23.64
2018-09-05T11:06:14.833Z,23.88
2018-09-05T11:11:16.120Z,23.85
2018-09-05T11:16:11.004Z,24.09
2018-09-05T11:21:05.961Z,24.27
2018-09-05T11:26:00.794Z,24.19
2018-09-05T11:30:56.137Z,24.45
2018-09-05T11:35:50.949Z,24.59
2018-09-05T11:40:48.722Z,24.64
2018-09-05T11:45:43.681Z,24.50
2018-09-05T11:50:38.473Z,24.75
2018-09-05T11:55:33.265Z,24.76
2018-09-05T12:00:28.053Z,24.55
2018-09-05T12:05:22.913Z,24.76
2018-09-05T12:10:17.772Z,24.70
2018-09-05T12:15:14.095Z,24.77
2018-09-05T12:20:08.897Z,24.80
2018-09-05T12:25:03.678Z,24.77
2018-09-05T12:29:58.467Z,24.52
2018-09-05T12:34:53.264Z,24.29
2018-09-05T12:39:48.131Z,24.24
2018-09-05T12:44:43.381Z,24.10
2018-09-05T12:49:38.201Z,23.97
2018-09-05T12:54:33.120Z,23.86
2018-09-05T12:59:27.888Z,23.94
2018-09-05T13:04:22.678Z,24.14
2018-09-05T13:09:17.455Z,24.18
2018-09-05T13:14:12.280Z,24.14
2018-09-05T13:19:07.206Z,23.96
2018-09-05T13:24:02.060Z,24.02
2018-09-05T13:28:57.028Z,23.97
2018-09-05T13:33:51.810Z,23.96
2018-09-05T13:38:46.617Z,23.97
2018-09-05T13:43:41.399Z,24.17
2018-09-05T13:48:36.215Z,24.20
2018-09-05T13:53:31.404Z,24.14
2018-09-05T13:58:26.342Z,23.97
2018-09-05T14:03:21.181Z,24.08
2018-09-05T14:08:16.009Z,24.16
2018-09-05T14:13:10.766Z,24.12
2018-09-05T14:18:05.605Z,24.17
2018-09-05T14:23:00.364Z,24.19
2018-09-05T14:27:55.166Z,24.30
2018-09-05T14:32:50.444Z,24.21
2018-09-05T14:37:45.621Z,24.22
2018-09-05T14:42:40.552Z,24.13
2018-09-05T14:47:35.445Z,24.07
2018-09-05T14:52:30.290Z,24.13
2018-09-05T14:57:25.199Z,24.25
2018-09-05T15:02:21.047Z,24.23
2018-09-05T15:07:15.898Z,24.17
2018-09-05T15:12:10.755Z,24.21
2018-09-05T15:17:05.617Z,24.30
2018-09-05T15:22:00.396Z,24.19
2018-09-05T15:26:55.173Z,24.34
2018-09-05T15:31:49.986Z,24.20
2018-09-05T15:36:45.054Z,24.36
2018-09-05T15:41:39.972Z,24.22
2018-09-05T15:46:34.805Z,24.22
2018-09-05T15:51:29.590Z,24.16
2018-09-05T15:56:24.368Z,24.17
2018-09-05T16:01:21.249Z,24.17
2018-09-05T16:06:16.148Z,24.02
2018-09-05T16:11:10.957Z,24.02
2018-09-05T16:16:05.843Z,23.96
2018-09-05T16:21:00.644Z,23.88
2018-09-05T16:25:55.433Z,23.96
2018-09-05T16:30:50.214Z,23.92
2018-09-05T16:35:45.066Z,23.78
2018-09-05T16:40:39.961Z,23.61
2018-09-05T16:45:34.857Z,23.46
2018-09-05T16:50:29.657Z,23.39
2018-09-05T16:55:24.505Z,23.25
2018-09-05T17:00:19.330Z,23.10
2018-09-05T17:05:14.151Z,22.91
2018-09-05T17:10:09.005Z,22.75
2018-09-05T17:15:03.781Z,22.60
2018-09-05T17:19:58.585Z,22.46
2018-09-05T17:24:53.470Z,22.28
2018-09-05T17:29:48.266Z,22.13
2018-09-05T17:34:43.081Z,22.06
2018-09-05T17:39:37.901Z,21.97
2018-09-05T17:44:32.687Z,21.89
2018-09-05T17:49:27.482Z,21.80
2018-09-05T17:54:22.290Z,21.73
2018-09-05T17:59:17.063Z,21.53
2018-09-05T18:04:11.909Z,21.35
2018-09-05T18:09:09.278Z,21.24
2018-09-05T18:14:04.176Z,21.15
2018-09-05T18:18:59.048Z,21.02
2018-09-05T18:23:53.826Z,20.95
2018-09-05T18:28:48.618Z,20.85
2018-09-05T18:33:43.465Z,20.75
2018-09-05T18:38:38.334Z,20.58
2018-09-05T18:43:33.124Z,20.50
2018-09-05T18:48:27.995Z,20.40
2018-09-05T18:53:22.801Z,20.40
2018-09-05T18:58:17.605Z,20.34
2018-09-05T19:03:14.309Z,20.10
2018-09-05T19:08:09.163Z,20.10
2018-09-05T19:13:03.961Z,20.09
2018-09-05T19:17:58.781Z,20.02
2018-09-05T19:22:53.625Z,19.88
2018-09-05T19:27:48.456Z,19.85
2018-09-05T19:32:43.275Z,19.96
2018-09-05T19:37:38.552Z,19.64
2018-09-05T19:42:33.428Z,19.63
2018-09-05T19:47:28.250Z,19.58
2018-09-05T19:52:23.052Z,19.57
2018-09-05T19:57:17.890Z,19.43
2018-09-05T20:02:12.817Z,19.29
2018-09-05T20:07:07.738Z,18.97
2018-09-05T20:12:02.539Z,18.85
2018-09-05T20:16:57.361Z,19.02
2018-09-05T20:21:52.713Z,19.03
2018-09-05T20:26:47.498Z,19.08
2018-09-05T20:31:42.345Z,18.96
2018-09-05T20:36:37.165Z,19.01
2018-09-05T20:41:32.517Z,19.06
2018-09-05T20:46:27.509Z,18.96
2018-09-05T20:51:22.492Z,18.76
2018-09-05T20:56:17.328Z,18.58
2018-09-05T21:01:12.236Z,18.56
2018-09-05T21:06:07.533Z,18.56
2018-09-05T21:11:02.365Z,18.46
2018-09-05T21:15:57.330Z,18.38
2018-09-05T21:20:52.193Z,18.49
2018-09-05T21:25:47.081Z,18.53
2018-09-05T21:30:41.983Z,18.45
2018-09-05T21:35:36.810Z,18.30
2018-09-05T21:40:31.723Z,18.01
2018-09-05T21:45:26.645Z,18.01
2018-09-05T21:50:21.677Z,18.12
2018-09-05T21:55:16.612Z,17.80
2018-09-05T22:00:12.003Z,17.89
2018-09-05T22:05:06.884Z,17.97
2018-09-05T22:10:01.734Z,17.94
2018-09-05T22:14:56.581Z,17.78
2018-09-05T22:19:51.529Z,17.82
2018-09-05T22:24:46.397Z,17.82
2018-09-05T22:29:41.324Z,17.58
2018-09-05T22:34:36.302Z,17.46
2018-09-05T22:39:31.167Z,17.67
2018-09-05T22:44:42.467Z,17.61
2018-09-05T23:02:10.899Z,17.56
2018-09-05T23:07:22.239Z,17.42
2018-09-05T23:12:33.586Z,17.45
2018-09-05T23:17:46.844Z,17.57
2018-09-05T23:24:54.236Z,17.70
2018-09-05T23:29:49.093Z,17.54
2018-09-05T23:34:44.038Z,17.40
2018-09-05T23:39:38.930Z,17.47
2018-09-05T23:44:33.815Z,17.32
2018-09-05T23:49:29.537Z,17.33
2018-09-05T23:54:24.436Z,17.52
2018-09-05T23:59:19.218Z,17.55
